Time;durP1;ratioP1;P1;durP2;ratioP2;P2;SDS_P1;SDS_P2;PMS_P1;PMS_P2;Temp;Humidity;BMP_temperature;BMP_pressure;BME280_temperature;BME280_humidity;BME280_pressure;Samples;Min_cycle;Max_cycle;Signal;HPM_P1;HPM_P2
2023/07/25 00:00:14;;;;;;;;;;;12.20;99.90;;;;;;5054385;28;19920;-65
2023/07/25 00:02:42;;;;;;;;;;;12.20;99.90;;;;;;5071615;28;20688;-64
2023/07/25 00:05:09;;;;;;;;;;;12.10;99.90;;;;;;5054644;28;19928;-64
2023/07/25 00:07:36;;;;;;;;;;;12.10;99.90;;;;;;5074295;28;19928;-64
2023/07/25 00:10:03;;;;;;;;;;;12.10;99.90;;;;;;5055631;28;19928;-64
2023/07/25 00:12:30;;;;;;;;;;;12.00;99.90;;;;;;5058410;28;20380;-63
2023/07/25 00:14:56;;;;;;;;;;;12.00;99.90;;;;;;5058607;28;19924;-63
2023/07/25 00:17:23;;;;;;;;;;;11.90;99.90;;;;;;5057848;28;19920;-65
2023/07/25 00:19:51;;;;;;;;;;;11.80;99.90;;;;;;5058084;28;19920;-64
2023/07/25 00:22:18;;;;;;;;;;;11.80;99.90;;;;;;5076016;28;19920;-63
2023/07/25 00:24:44;;;;;;;;;;;11.80;99.90;;;;;;5057449;28;19934;-64
2023/07/25 00:27:11;;;;;;;;;;;11.80;99.90;;;;;;5076110;28;20346;-64
2023/07/25 00:29:38;;;;;;;;;;;11.80;99.90;;;;;;5057627;28;19927;-64
2023/07/25 00:32:05;;;;;;;;;;;11.80;99.90;;;;;;5076121;28;19920;-65
2023/07/25 00:34:32;;;;;;;;;;;11.80;99.90;;;;;;5058054;28;20372;-64
2023/07/25 00:37:00;;;;;;;;;;;11.90;99.90;;;;;;5075315;28;19943;-64
2023/07/25 00:39:26;;;;;;;;;;;11.90;99.90;;;;;;5076102;28;19932;-63
2023/07/25 00:41:53;;;;;;;;;;;11.90;99.90;;;;;;5057568;28;19924;-64
2023/07/25 00:44:20;;;;;;;;;;;12.00;99.90;;;;;;5075345;28;19920;-64
2023/07/25 00:46:47;;;;;;;;;;;12.00;99.90;;;;;;5075512;28;20358;-64
2023/07/25 00:49:13;;;;;;;;;;;12.00;99.90;;;;;;5057794;28;19920;-65
2023/07/25 00:51:40;;;;;;;;;;;12.00;99.90;;;;;;5057110;28;19926;-63
2023/07/25 00:54:08;;;;;;;;;;;12.00;99.90;;;;;;5075613;28;19924;-64
2023/07/25 00:56:35;;;;;;;;;;;12.00;99.90;;;;;;5075799;28;19924;-65
2023/07/25 00:59:02;;;;;;;;;;;12.00;99.90;;;;;;5075072;28;20337;-64
2023/07/25 01:01:29;;;;;;;;;;;12.10;99.90;;;;;;5055161;28;20376;-63
2023/07/25 01:03:56;;;;;;;;;;;12.10;99.90;;;;;;5057459;28;19920;-64
2023/07/25 01:06:22;;;;;;;;;;;12.20;99.90;;;;;;5074930;28;19975;-64
2023/07/25 01:08:49;;;;;;;;;;;12.20;99.90;;;;;;5075016;28;20326;-64
2023/07/25 01:11:18;;;;;;;;;;;12.20;99.90;;;;;;5055142;28;19927;-64
2023/07/25 01:13:45;;;;;;;;;;;12.20;99.90;;;;;;5056270;28;19920;-65
2023/07/25 01:16:13;;;;;;;;;;;12.20;99.90;;;;;;5075437;28;19920;-64
2023/07/25 01:18:40;;;;;;;;;;;12.10;99.90;;;;;;5074910;28;19920;-64
2023/07/25 01:21:07;;;;;;;;;;;12.10;99.90;;;;;;5056567;28;19920;-64
2023/07/25 01:23:34;;;;;;;;;;;12.20;99.90;;;;;;5075131;28;19920;-64
2023/07/25 01:26:02;;;;;;;;;;;12.20;99.90;;;;;;5074377;28;19990;-64
2023/07/25 01:28:29;;;;;;;;;;;12.20;99.90;;;;;;5057139;28;19974;-64
2023/07/25 01:30:56;;;;;;;;;;;12.30;99.90;;;;;;5075116;28;19924;-64
2023/07/25 01:33:23;;;;;;;;;;;12.30;99.90;;;;;;5074197;28;20346;-64
2023/07/25 01:35:50;;;;;;;;;;;12.40;99.90;;;;;;5074804;28;20303;-64
2023/07/25 01:38:17;;;;;;;;;;;12.50;99.90;;;;;;5075000;28;19921;-64
2023/07/25 01:40:44;;;;;;;;;;;12.60;99.90;;;;;;5056127;28;19920;-64
2023/07/25 01:43:12;;;;;;;;;;;12.70;99.90;;;;;;5074934;28;19920;-64
2023/07/25 01:45:38;;;;;;;;;;;12.70;99.90;;;;;;5074690;28;19928;-65
2023/07/25 01:48:05;;;;;;;;;;;12.80;99.90;;;;;;5056437;28;20277;-65
2023/07/25 01:50:32;;;;;;;;;;;12.80;99.90;;;;;;5074270;28;19978;-65
2023/07/25 01:52:59;;;;;;;;;;;12.90;99.90;;;;;;5056435;28;19962;-64
2023/07/25 01:55:25;;;;;;;;;;;12.90;99.90;;;;;;5073690;28;20384;-64
2023/07/25 01:57:52;;;;;;;;;;;12.90;99.90;;;;;;5056762;28;19921;-65
2023/07/25 02:00:20;;;;;;;;;;;12.90;99.90;;;;;;5074333;28;20010;-64
2023/07/25 02:02:47;;;;;;;;;;;12.90;99.90;;;;;;5073889;28;19924;-64
2023/07/25 02:05:14;;;;;;;;;;;12.90;99.90;;;;;;5056407;28;19920;-64
2023/07/25 02:07:40;;;;;;;;;;;12.90;99.90;;;;;;5074268;28;20003;-64
2023/07/25 02:10:08;;;;;;;;;;;12.80;99.90;;;;;;5055646;28;19920;-64
2023/07/25 02:12:34;;;;;;;;;;;12.80;99.90;;;;;;5074317;28;19920;-64
2023/07/25 02:15:01;;;;;;;;;;;12.80;99.90;;;;;;5073206;28;19950;-64
2023/07/25 02:17:29;;;;;;;;;;;12.70;99.90;;;;;;5055946;28;19973;-64
2023/07/25 02:19:56;;;;;;;;;;;12.70;99.90;;;;;;5056215;28;19920;-64
2023/07/25 02:22:22;;;;;;;;;;;12.60;99.90;;;;;;5055357;28;19924;-65
2023/07/25 02:24:49;;;;;;;;;;;12.60;99.90;;;;;;5071439;28;19920;-64
2023/07/25 02:27:16;;;;;;;;;;;12.70;99.90;;;;;;5074003;28;19920;-65
2023/07/25 02:29:42;;;;;;;;;;;12.60;99.90;;;;;;5054790;28;20307;-64
2023/07/25 02:32:09;;;;;;;;;;;12.60;99.90;;;;;;5074001;28;19970;-65
2023/07/25 02:34:37;;;;;;;;;;;12.60;99.90;;;;;;5055776;28;20372;-64
2023/07/25 02:37:04;;;;;;;;;;;12.60;99.90;;;;;;5055017;28;19920;-64
2023/07/25 02:39:31;;;;;;;;;;;12.60;99.90;;;;;;5071583;28;19928;-64
2023/07/25 02:41:57;;;;;;;;;;;12.70;99.90;;;;;;5073728;28;19920;-64
2023/07/25 02:44:24;;;;;;;;;;;12.70;99.90;;;;;;5055059;28;19924;-64
2023/07/25 02:46:52;;;;;;;;;;;12.80;99.90;;;;;;5055676;28;19927;-64
2023/07/25 02:49:19;;;;;;;;;;;12.80;99.90;;;;;;5073527;28;19920;-64
2023/07/25 02:51:47;;;;;;;;;;;12.90;99.90;;;;;;5053740;28;19928;-64
2023/07/25 02:54:14;;;;;;;;;;;12.90;99.90;;;;;;5073469;28;19920;-63
2023/07/25 02:56:40;;;;;;;;;;;12.90;99.90;;;;;;5055334;28;19966;-65
2023/07/25 02:59:07;;;;;;;;;;;12.90;99.90;;;;;;5072148;28;19927;-63
2023/07/25 03:01:34;;;;;;;;;;;12.90;99.90;;;;;;5072925;28;20368;-64
2023/07/25 03:04:01;;;;;;;;;;;12.90;99.90;;;;;;5073294;28;20365;-64
2023/07/25 03:06:27;;;;;;;;;;;12.90;99.90;;;;;;5072221;28;19934;-63
2023/07/25 03:08:55;;;;;;;;;;;12.90;99.90;;;;;;5072924;28;19924;-63
2023/07/25 03:11:22;;;;;;;;;;;12.90;99.90;;;;;;5054427;28;19981;-65
2023/07/25 03:13:49;;;;;;;;;;;13.00;99.90;;;;;;5073220;28;19921;-64
2023/07/25 03:16:16;;;;;;;;;;;13.00;99.90;;;;;;5072769;28;19920;-64
2023/07/25 03:18:43;;;;;;;;;;;13.00;99.90;;;;;;5072398;28;20303;-64
2023/07/25 03:21:09;;;;;;;;;;;13.10;99.90;;;;;;5072557;28;19928;-64
2023/07/25 03:23:36;;;;;;;;;;;13.10;99.90;;;;;;5072779;28;19924;-65
2023/07/25 03:26:04;;;;;;;;;;;13.10;99.90;;;;;;5072254;28;19924;-64
2023/07/25 03:28:31;;;;;;;;;;;13.10;99.90;;;;;;5054842;28;20304;-64
2023/07/25 03:30:58;;;;;;;;;;;13.20;99.90;;;;;;5052627;28;19966;-64
2023/07/25 03:33:24;;;;;;;;;;;13.20;99.90;;;;;;5054080;28;20023;-64
2023/07/25 03:35:51;;;;;;;;;;;13.20;99.90;;;;;;5072560;28;19966;-65
2023/07/25 03:38:18;;;;;;;;;;;13.20;99.90;;;;;;5072216;28;19920;-65
2023/07/25 03:40:45;;;;;;;;;;;13.10;99.90;;;;;;5071487;28;19927;-64
2023/07/25 03:43:13;;;;;;;;;;;13.20;99.90;;;;;;5053413;28;20269;-63
2023/07/25 03:45:40;;;;;;;;;;;13.10;99.90;;;;;;5054274;28;19977;-64
2023/07/25 03:48:06;;;;;;;;;;;13.10;99.90;;;;;;5054012;28;20380;-65
2023/07/25 03:50:33;;;;;;;;;;;13.10;99.90;;;;;;5072307;28;19974;-64
2023/07/25 03:53:00;;;;;;;;;;;13.00;99.90;;;;;;5063082;28;19955;-65
2023/07/25 03:55:27;;;;;;;;;;;13.00;99.90;;;;;;5051086;28;19921;-64
2023/07/25 03:57:54;;;;;;;;;;;13.00;99.90;;;;;;5050706;28;19925;-64
2023/07/25 04:00:22;;;;;;;;;;;13.00;99.90;;;;;;5069434;28;20276;-67
2023/07/25 04:02:48;;;;;;;;;;;13.10;99.90;;;;;;5051586;28;19924;-65
2023/07/25 04:05:15;;;;;;;;;;;13.00;99.90;;;;;;5051895;28;19932;-65
2023/07/25 04:07:42;;;;;;;;;;;13.00;99.90;;;;;;5070692;28;19920;-64
2023/07/25 04:10:09;;;;;;;;;;;13.00;99.90;;;;;;5052727;28;19925;-64
2023/07/25 04:12:36;;;;;;;;;;;13.00;99.90;;;;;;5052715;28;20013;-64
2023/07/25 04:15:02;;;;;;;;;;;13.00;99.90;;;;;;5070090;28;19920;-65
2023/07/25 04:17:30;;;;;;;;;;;13.00;99.90;;;;;;5070579;28;20454;-65
2023/07/25 04:19:57;;;;;;;;;;;13.00;99.90;;;;;;5069711;28;19921;-64
2023/07/25 04:22:24;;;;;;;;;;;13.00;99.90;;;;;;5068817;28;19931;-64
2023/07/25 04:24:50;;;;;;;;;;;13.00;99.90;;;;;;5051801;28;20440;-65
2023/07/25 04:27:17;;;;;;;;;;;12.90;99.90;;;;;;5053552;28;19920;-64
2023/07/25 04:29:44;;;;;;;;;;;12.90;99.90;;;;;;5068591;28;20372;-64
2023/07/25 04:32:10;;;;;;;;;;;12.90;99.90;;;;;;5052918;28;19920;-64
2023/07/25 04:34:38;;;;;;;;;;;12.90;99.90;;;;;;5050823;28;20383;-68
2023/07/25 04:37:06;;;;;;;;;;;12.90;99.90;;;;;;5069807;28;19920;-67
2023/07/25 04:39:32;;;;;;;;;;;12.90;99.90;;;;;;5050777;28;19970;-67
2023/07/25 04:41:59;;;;;;;;;;;12.90;99.90;;;;;;5071239;28;19920;-67
2023/07/25 04:44:26;;;;;;;;;;;12.90;99.90;;;;;;5050895;28;19921;-64
2023/07/25 04:46:52;;;;;;;;;;;12.90;99.90;;;;;;5051154;28;19924;-64
2023/07/25 04:49:19;;;;;;;;;;;12.90;99.90;;;;;;5068766;28;19920;-64
2023/07/25 04:51:47;;;;;;;;;;;12.90;99.90;;;;;;5069798;28;20334;-64
2023/07/25 04:54:14;;;;;;;;;;;13.00;99.90;;;;;;5054242;28;19924;-63
2023/07/25 04:56:41;;;;;;;;;;;13.20;99.90;;;;;;5071509;28;19924;-65
2023/07/25 04:59:07;;;;;;;;;;;13.30;99.90;;;;;;5055354;28;19921;-65
2023/07/25 05:01:34;;;;;;;;;;;13.30;99.90;;;;;;5052785;28;19978;-64
2023/07/25 05:04:01;;;;;;;;;;;13.30;99.90;;;;;;5055750;28;19920;-65
2023/07/25 05:06:27;;;;;;;;;;;13.30;99.90;;;;;;5072905;28;19924;-65
2023/07/25 05:08:56;;;;;;;;;;;13.20;99.90;;;;;;5056239;28;19924;-65
2023/07/25 05:11:22;;;;;;;;;;;13.20;99.90;;;;;;5071379;28;19991;-64
2023/07/25 05:13:49;;;;;;;;;;;13.10;99.90;;;;;;5070892;28;20298;-64
2023/07/25 05:16:16;;;;;;;;;;;13.10;99.90;;;;;;5072854;28;20364;-65
2023/07/25 05:18:43;;;;;;;;;;;13.10;99.90;;;;;;5055484;28;19960;-64
2023/07/25 05:21:09;;;;;;;;;;;13.20;99.90;;;;;;5072042;28;20502;-64
2023/07/25 05:23:36;;;;;;;;;;;13.30;99.90;;;;;;5052127;28;19924;-66
2023/07/25 05:26:04;;;;;;;;;;;13.30;99.90;;;;;;5054913;28;20421;-65
2023/07/25 05:28:31;;;;;;;;;;;13.50;99.90;;;;;;5051263;28;19998;-63
2023/07/25 05:30:57;;;;;;;;;;;13.70;99.90;;;;;;5070683;28;19920;-63
2023/07/25 05:33:24;;;;;;;;;;;13.90;99.90;;;;;;5070946;28;20554;-65
2023/07/25 05:35:59;;;;;;;;;;;14.00;99.90;;;;;;5054824;28;19928;-65
2023/07/25 05:38:25;;;;;;;;;;;14.20;99.90;;;;;;5067752;28;19921;-66
2023/07/25 05:40:53;;;;;;;;;;;14.20;99.90;;;;;;5071266;28;19931;-64
2023/07/25 05:43:21;;;;;;;;;;;14.20;99.90;;;;;;5072264;28;19924;-65
2023/07/25 05:45:48;;;;;;;;;;;14.20;99.90;;;;;;5072067;28;19924;-64
2023/07/25 05:48:15;;;;;;;;;;;14.10;99.90;;;;;;5052991;28;19928;-64
2023/07/25 05:50:41;;;;;;;;;;;14.00;99.90;;;;;;5070289;28;19921;-63
2023/07/25 05:53:08;;;;;;;;;;;14.00;99.90;;;;;;5071398;28;20433;-65
2023/07/25 05:55:35;;;;;;;;;;;14.10;99.90;;;;;;5055581;28;19935;-65
2023/07/25 05:58:01;;;;;;;;;;;14.20;99.90;;;;;;5069857;28;19920;-65
2023/07/25 06:00:30;;;;;;;;;;;14.40;99.90;;;;;;5052553;28;19924;-65
2023/07/25 06:02:56;;;;;;;;;;;14.50;99.90;;;;;;5054116;28;20003;-65
2023/07/25 06:05:23;;;;;;;;;;;14.70;99.90;;;;;;5072650;28;19928;-65
2023/07/25 06:07:50;;;;;;;;;;;15.00;99.90;;;;;;5068429;28;19927;-65
2023/07/25 06:10:17;;;;;;;;;;;15.30;99.90;;;;;;5073463;28;19920;-65
2023/07/25 06:12:44;;;;;;;;;;;15.60;99.90;;;;;;5071178;28;19920;-65
2023/07/25 06:15:10;;;;;;;;;;;15.80;99.90;;;;;;5053698;28;19924;-64
2023/07/25 06:17:38;;;;;;;;;;;16.00;99.90;;;;;;5053033;28;20001;-65
2023/07/25 06:20:06;;;;;;;;;;;16.20;99.90;;;;;;5055126;28;19924;-64
2023/07/25 06:22:34;;;;;;;;;;;16.50;99.90;;;;;;5055346;28;20356;-65
2023/07/25 06:25:01;;;;;;;;;;;16.70;99.90;;;;;;5055744;28;19966;-65
2023/07/25 06:27:28;;;;;;;;;;;16.80;99.90;;;;;;5056008;28;19921;-63
2023/07/25 06:29:55;;;;;;;;;;;16.90;99.90;;;;;;5055425;28;19925;-65
2023/07/25 06:32:21;;;;;;;;;;;17.10;99.90;;;;;;5073916;28;19954;-63
2023/07/25 06:34:49;;;;;;;;;;;17.40;99.90;;;;;;5055762;28;20384;-64
2023/07/25 06:37:16;;;;;;;;;;;17.60;99.90;;;;;;5072908;28;19966;-65
2023/07/25 06:39:43;;;;;;;;;;;17.80;99.90;;;;;;5071193;28;20327;-64
2023/07/25 06:42:09;;;;;;;;;;;18.00;99.90;;;;;;5073362;28;19924;-65
2023/07/25 06:44:36;;;;;;;;;;;18.00;99.90;;;;;;5071080;28;19934;-65
2023/07/25 06:47:03;;;;;;;;;;;18.20;99.90;;;;;;5073223;28;20064;-65
2023/07/25 06:49:30;;;;;;;;;;;18.50;99.90;;;;;;5054734;28;19920;-66
2023/07/25 06:52:00;;;;;;;;;;;18.60;99.90;;;;;;5055403;28;19923;-65
2023/07/25 06:54:26;;;;;;;;;;;18.80;99.90;;;;;;5073370;28;20281;-66
2023/07/25 06:56:53;;;;;;;;;;;19.20;99.90;;;;;;5054750;28;19932;-65
2023/07/25 06:59:20;;;;;;;;;;;19.50;99.90;;;;;;5055226;28;19965;-65
2023/07/25 07:01:47;;;;;;;;;;;19.40;99.90;;;;;;5055259;28;19920;-65
2023/07/25 07:04:13;;;;;;;;;;;19.80;99.90;;;;;;5054279;28;19966;-65
2023/07/25 07:06:40;;;;;;;;;;;19.70;99.90;;;;;;5055205;28;19969;-64
2023/07/25 07:09:08;;;;;;;;;;;19.60;99.90;;;;;;5036432;28;19920;-65
2023/07/25 07:11:35;;;;;;;;;;;19.80;99.90;;;;;;5050359;28;19932;-65
2023/07/25 07:14:02;;;;;;;;;;;19.80;99.90;;;;;;5034916;28;19927;-65
2023/07/25 07:16:28;;;;;;;;;;;20.00;99.90;;;;;;5034482;28;19920;-65
2023/07/25 07:18:55;;;;;;;;;;;20.60;99.90;;;;;;5052172;28;19924;-65
2023/07/25 07:21:22;;;;;;;;;;;21.10;99.90;;;;;;5035021;28;19921;-64
2023/07/25 07:23:48;;;;;;;;;;;21.10;99.00;;;;;;5052655;28;19929;-65
2023/07/25 07:26:17;;;;;;;;;;;21.40;97.80;;;;;;5052073;28;20333;-65
2023/07/25 07:28:43;;;;;;;;;;;21.50;98.30;;;;;;5052448;28;19959;-65
2023/07/25 07:31:12;;;;;;;;;;;22.10;98.00;;;;;;5034552;28;19920;-64
2023/07/25 07:33:39;;;;;;;;;;;22.30;95.90;;;;;;5033913;28;20319;-65
2023/07/25 07:36:06;;;;;;;;;;;22.40;96.40;;;;;;5052776;28;20335;-64
2023/07/25 07:38:32;;;;;;;;;;;22.60;95.40;;;;;;5034535;28;19933;-65
2023/07/25 07:40:59;;;;;;;;;;;22.70;95.90;;;;;;5034113;28;20296;-65
2023/07/25 07:43:27;;;;;;;;;;;23.00;93.50;;;;;;5034294;28;19924;-65
2023/07/25 07:45:54;;;;;;;;;;;23.00;94.60;;;;;;5051848;28;19928;-65
2023/07/25 07:48:20;;;;;;;;;;;22.30;94.70;;;;;;5052630;28;19983;-65
2023/07/25 07:50:49;;;;;;;;;;;21.70;95.80;;;;;;5034430;28;19955;-65
2023/07/25 07:53:16;;;;;;;;;;;21.10;95.60;;;;;;5051614;28;20423;-64
2023/07/25 07:55:43;;;;;;;;;;;20.70;96.60;;;;;;5052426;28;19951;-65
2023/07/25 07:58:10;;;;;;;;;;;20.40;98.00;;;;;;5052379;28;19920;-65
2023/07/25 08:00:38;;;;;;;;;;;20.90;97.40;;;;;;5051682;28;19932;-65
2023/07/25 08:03:05;;;;;;;;;;;21.30;96.70;;;;;;5052307;28;20296;-65
2023/07/25 08:05:31;;;;;;;;;;;22.00;96.90;;;;;;5052215;28;19924;-65
2023/07/25 08:07:58;;;;;;;;;;;22.00;95.90;;;;;;5060180;28;19928;-66
2023/07/25 08:10:25;;;;;;;;;;;21.70;95.90;;;;;;5052287;28;19927;-65
2023/07/25 08:12:52;;;;;;;;;;;21.30;95.80;;;;;;5072193;28;19920;-65
2023/07/25 08:15:19;;;;;;;;;;;21.10;96.10;;;;;;5053807;28;20360;-66
2023/07/25 08:17:47;;;;;;;;;;;21.70;96.00;;;;;;5054294;28;19924;-65
2023/07/25 08:20:15;;;;;;;;;;;21.90;95.40;;;;;;5054273;28;20346;-65
2023/07/25 08:22:41;;;;;;;;;;;22.70;94.80;;;;;;5053231;28;19920;-65
2023/07/25 08:25:09;;;;;;;;;;;23.50;93.80;;;;;;5071907;28;19920;-64
2023/07/25 08:27:36;;;;;;;;;;;24.20;93.00;;;;;;5070353;28;19932;-65
2023/07/25 08:30:02;;;;;;;;;;;24.80;91.60;;;;;;5057365;28;19927;-65
2023/07/25 08:32:29;;;;;;;;;;;25.40;91.10;;;;;;5058062;28;19920;-65
2023/07/25 08:34:57;;;;;;;;;;;25.50;90.80;;;;;;5057210;28;19925;-64
2023/07/25 08:37:25;;;;;;;;;;;25.50;90.40;;;;;;5057971;28;19920;-65
2023/07/25 08:39:51;;;;;;;;;;;25.90;90.10;;;;;;5075498;28;19928;-65
2023/07/25 08:42:18;;;;;;;;;;;26.00;89.80;;;;;;5057363;28;20360;-64
2023/07/25 08:44:47;;;;;;;;;;;25.70;87.80;;;;;;5057391;28;19927;-65
2023/07/25 08:47:22;;;;;;;;;;;25.80;88.70;;;;;;5075835;28;19940;-65
2023/07/25 08:49:52;;;;;;;;;;;26.10;88.20;;;;;;5073910;28;19921;-65
2023/07/25 08:52:20;;;;;;;;;;;26.50;86.20;;;;;;5073383;28;20015;-66
2023/07/25 08:54:49;;;;;;;;;;;26.60;84.90;;;;;;5057558;28;19937;-65
2023/07/25 08:57:16;;;;;;;;;;;27.00;84.60;;;;;;5057046;28;19920;-65
2023/07/25 08:59:43;;;;;;;;;;;27.30;82.30;;;;;;5075432;28;19964;-65
2023/07/25 09:02:11;;;;;;;;;;;26.40;82.50;;;;;;5057688;28;19920;-65
2023/07/25 09:04:38;;;;;;;;;;;26.10;82.80;;;;;;5054296;28;19920;-65
2023/07/25 09:07:06;;;;;;;;;;;25.40;84.70;;;;;;5057229;28;19924;-66
2023/07/25 09:09:34;;;;;;;;;;;25.80;86.50;;;;;;5057144;28;19926;-66
2023/07/25 09:12:01;;;;;;;;;;;26.00;83.70;;;;;;5056812;28;19920;-65
2023/07/25 09:14:27;;;;;;;;;;;26.50;84.10;;;;;;5075155;28;19921;-66
2023/07/25 09:16:54;;;;;;;;;;;26.40;83.10;;;;;;5072978;28;20449;-65
2023/07/25 09:19:21;;;;;;;;;;;26.10;82.30;;;;;;5056519;28;20418;-64
2023/07/25 09:21:49;;;;;;;;;;;25.70;84.10;;;;;;5075320;28;19925;-65
2023/07/25 09:24:16;;;;;;;;;;;24.90;84.50;;;;;;5074348;28;19920;-65
2023/07/25 09:26:49;;;;;;;;;;;25.30;86.20;;;;;;5075264;28;19920;-65
2023/07/25 09:29:17;;;;;;;;;;;25.70;85.70;;;;;;5057089;28;19931;-65
2023/07/25 09:31:44;;;;;;;;;;;25.00;86.30;;;;;;5074103;28;19990;-65
2023/07/25 09:34:15;;;;;;;;;;;24.60;87.40;;;;;;5057050;28;20353;-64
2023/07/25 09:36:45;;;;;;;;;;;24.10;88.50;;;;;;5072997;28;19928;-64
2023/07/25 09:39:11;;;;;;;;;;;23.90;90.30;;;;;;5074015;28;19920;-65
2023/07/25 09:41:38;;;;;;;;;;;24.50;89.70;;;;;;5056926;28;19921;-65
2023/07/25 09:44:06;;;;;;;;;;;25.00;89.10;;;;;;5056661;28;19978;-65
2023/07/25 09:46:33;;;;;;;;;;;25.20;88.00;;;;;;5074025;28;20338;-66
2023/07/25 09:49:00;;;;;;;;;;;25.10;87.00;;;;;;5054618;28;19943;-65
2023/07/25 09:51:27;;;;;;;;;;;24.50;87.50;;;;;;5056692;28;19970;-64
2023/07/25 09:53:54;;;;;;;;;;;24.20;90.00;;;;;;5056064;28;19926;-65
2023/07/25 09:56:21;;;;;;;;;;;23.70;90.60;;;;;;5056447;28;19920;-64
2023/07/25 09:58:49;;;;;;;;;;;23.20;90.30;;;;;;5056587;28;19924;-65
2023/07/25 10:01:17;;;;;;;;;;;22.90;91.20;;;;;;5055498;28;20379;-65
2023/07/25 10:03:44;;;;;;;;;;;22.90;90.90;;;;;;5074346;28;19927;-64
2023/07/25 10:06:11;;;;;;;;;;;22.90;91.60;;;;;;5056271;28;19927;-64
2023/07/25 10:08:39;;;;;;;;;;;23.00;91.10;;;;;;5055310;28;20284;-65
2023/07/25 10:11:06;;;;;;;;;;;23.10;91.00;;;;;;5072028;28;19921;-65
2023/07/25 10:13:33;;;;;;;;;;;23.30;91.40;;;;;;5073422;28;19920;-65
2023/07/25 10:16:01;;;;;;;;;;;23.20;89.60;;;;;;5056269;28;19921;-65
2023/07/25 10:18:33;;;;;;;;;;;22.90;89.70;;;;;;5056236;28;19931;-65
2023/07/25 10:20:59;;;;;;;;;;;22.50;90.50;;;;;;5053910;28;19921;-65
2023/07/25 10:23:30;;;;;;;;;;;22.30;90.60;;;;;;5055861;28;19928;-65
2023/07/25 10:25:56;;;;;;;;;;;22.00;91.00;;;;;;5055604;28;19933;-66
2023/07/25 10:28:23;;;;;;;;;;;21.60;91.20;;;;;;5055363;28;19920;-65
2023/07/25 10:30:52;;;;;;;;;;;22.30;91.20;;;;;;5055523;28;19935;-65
2023/07/25 10:33:19;;;;;;;;;;;23.20;90.10;;;;;;5055871;28;19924;-65
2023/07/25 10:35:52;;;;;;;;;;;24.10;88.70;;;;;;5055246;28;20379;-66
2023/07/25 10:38:23;;;;;;;;;;;25.00;88.00;;;;;;5055499;28;19921;-65
2023/07/25 10:40:50;;;;;;;;;;;26.10;86.50;;;;;;5073373;28;20376;-66
2023/07/25 10:43:17;;;;;;;;;;;26.40;86.10;;;;;;5054848;28;19916;-66
2023/07/25 10:45:48;;;;;;;;;;;25.70;83.60;;;;;;5073589;28;19927;-65
2023/07/25 10:48:31;;;;;;;;;;;25.00;86.60;;;;;;5073572;28;19927;-65
2023/07/25 10:50:59;;;;;;;;;;;24.40;86.60;;;;;;5072898;28;19928;-65
2023/07/25 10:53:26;;;;;;;;;;;24.10;88.20;;;;;;5055561;28;20338;-66
2023/07/25 10:56:08;;;;;;;;;;;24.60;88.50;;;;;;5072658;28;19924;-66
2023/07/25 10:58:37;;;;;;;;;;;25.10;85.70;;;;;;5055437;28;19924;-66
2023/07/25 11:01:04;;;;;;;;;;;25.20;85.30;;;;;;5070933;28;20319;-66
2023/07/25 11:03:31;;;;;;;;;;;25.10;84.50;;;;;;5072457;28;19927;-66
2023/07/25 11:06:13;;;;;;;;;;;24.50;84.80;;;;;;5055260;28;20098;-65
2023/07/25 11:08:42;;;;;;;;;;;24.30;86.00;;;;;;5070803;28;19927;-65
2023/07/25 11:11:09;;;;;;;;;;;24.50;86.10;;;;;;5070485;28;19977;-65
2023/07/25 11:13:37;;;;;;;;;;;25.10;86.30;;;;;;5055125;28;19935;-65
2023/07/25 11:16:04;;;;;;;;;;;26.10;83.30;;;;;;5073160;28;19920;-65
2023/07/25 11:18:33;;;;;;;;;;;25.90;82.30;;;;;;5072112;28;20449;-65
2023/07/25 11:21:00;;;;;;;;;;;25.50;82.40;;;;;;5055019;28;20360;-66
2023/07/25 11:23:27;;;;;;;;;;;25.00;84.00;;;;;;5073050;28;19931;-65
2023/07/25 11:25:55;;;;;;;;;;;24.80;85.10;;;;;;5072254;28;19920;-65
2023/07/25 11:28:22;;;;;;;;;;;24.50;86.00;;;;;;5070798;28;19920;-65
2023/07/25 11:30:51;;;;;;;;;;;24.30;85.50;;;;;;5054063;28;19924;-65
2023/07/25 11:33:18;;;;;;;;;;;24.40;86.10;;;;;;5054975;28;20360;-65
2023/07/25 11:35:45;;;;;;;;;;;24.20;87.40;;;;;;5054749;28;20298;-66
2023/07/25 11:38:11;;;;;;;;;;;24.10;87.00;;;;;;5071975;28;20372;-66
2023/07/25 11:40:40;;;;;;;;;;;24.60;87.60;;;;;;5054666;28;19920;-66
2023/07/25 11:43:12;;;;;;;;;;;24.60;85.50;;;;;;5054554;28;19920;-66
2023/07/25 11:45:39;;;;;;;;;;;24.50;85.00;;;;;;5071664;28;19987;-65
2023/07/25 11:48:08;;;;;;;;;;;24.60;84.70;;;;;;5054835;28;19920;-65
2023/07/25 11:50:35;;;;;;;;;;;24.30;83.10;;;;;;5054464;28;19928;-65
2023/07/25 11:53:02;;;;;;;;;;;23.80;84.30;;;;;;5071793;28;19920;-65
2023/07/25 11:55:29;;;;;;;;;;;23.20;86.00;;;;;;5072222;28;19925;-65
2023/07/25 11:57:56;;;;;;;;;;;23.30;87.00;;;;;;5054634;28;19942;-65
2023/07/25 12:00:24;;;;;;;;;;;23.20;89.20;;;;;;5072040;28;19924;-66
2023/07/25 12:02:51;;;;;;;;;;;23.30;89.20;;;;;;5073446;28;19977;-65
2023/07/25 12:05:27;;;;;;;;;;;23.20;87.10;;;;;;5076639;28;19920;-64
2023/07/25 12:07:58;;;;;;;;;;;23.20;87.90;;;;;;5055784;28;19974;-64
2023/07/25 12:10:28;;;;;;;;;;;23.10;87.80;;;;;;5058289;28;19934;-65
2023/07/25 12:12:55;;;;;;;;;;;23.10;88.30;;;;;;5058147;28;19920;-65
2023/07/25 12:15:24;;;;;;;;;;;23.10;89.50;;;;;;5075856;28;20015;-65
2023/07/25 12:17:52;;;;;;;;;;;23.30;88.40;;;;;;5058084;28;19954;-65
2023/07/25 12:20:20;;;;;;;;;;;23.80;88.80;;;;;;5057940;28;19924;-65
2023/07/25 12:22:47;;;;;;;;;;;24.20;86.30;;;;;;5058215;28;19935;-64
2023/07/25 12:25:17;;;;;;;;;;;24.50;86.70;;;;;;5076528;28;19924;-65
2023/07/25 12:27:47;;;;;;;;;;;25.40;85.40;;;;;;5057810;28;19960;-65
2023/07/25 12:30:14;;;;;;;;;;;25.20;84.20;;;;;;5058186;28;20304;-65
2023/07/25 12:32:42;;;;;;;;;;;25.10;84.20;;;;;;5075944;28;19971;-65
2023/07/25 12:35:10;;;;;;;;;;;24.80;84.60;;;;;;5073055;28;19924;-65
2023/07/25 12:37:36;;;;;;;;;;;25.00;83.40;;;;;;5057940;28;19997;-66
2023/07/25 12:40:03;;;;;;;;;;;25.10;84.80;;;;;;5075033;28;19924;-65
2023/07/25 12:42:30;;;;;;;;;;;26.10;83.60;;;;;;5075130;28;19927;-65
2023/07/25 12:45:01;;;;;;;;;;;26.30;83.30;;;;;;5057671;28;19928;-65
2023/07/25 12:47:27;;;;;;;;;;;26.20;83.80;;;;;;5075652;28;19924;-65
2023/07/25 12:49:55;;;;;;;;;;;25.50;83.90;;;;;;5057235;28;19927;-65
2023/07/25 12:52:22;;;;;;;;;;;24.90;85.30;;;;;;5075596;28;19973;-65
2023/07/25 12:54:49;;;;;;;;;;;24.80;84.40;;;;;;5057843;28;19924;-64
2023/07/25 12:57:15;;;;;;;;;;;24.50;85.70;;;;;;5075151;28;19927;-65
2023/07/25 12:59:42;;;;;;;;;;;24.70;86.80;;;;;;5075534;28;19920;-64
2023/07/25 13:02:09;;;;;;;;;;;24.80;84.80;;;;;;5056791;28;19932;-65
2023/07/25 13:04:37;;;;;;;;;;;24.20;84.10;;;;;;5075217;28;19920;-65
2023/07/25 13:07:06;;;;;;;;;;;25.00;83.60;;;;;;5057378;28;19921;-65
2023/07/25 13:09:33;;;;;;;;;;;25.70;83.40;;;;;;5074734;28;20350;-65
2023/07/25 13:12:00;;;;;;;;;;;25.30;82.40;;;;;;5075061;28;20003;-64
2023/07/25 13:14:26;;;;;;;;;;;25.20;80.10;;;;;;5057054;28;20375;-65
2023/07/25 13:16:53;;;;;;;;;;;24.90;80.70;;;;;;5074647;28;19920;-65
2023/07/25 13:19:21;;;;;;;;;;;24.90;81.60;;;;;;5075419;28;19920;-64
2023/07/25 13:21:48;;;;;;;;;;;24.60;81.40;;;;;;5075110;28;19924;-65
2023/07/25 13:24:16;;;;;;;;;;;24.40;82.80;;;;;;5056668;28;19920;-64
2023/07/25 13:26:43;;;;;;;;;;;24.20;84.10;;;;;;5075354;28;19927;-65
2023/07/25 13:29:09;;;;;;;;;;;23.90;83.40;;;;;;5075002;28;19924;-65
2023/07/25 13:31:36;;;;;;;;;;;23.60;83.30;;;;;;5074173;28;20342;-65
2023/07/25 13:34:03;;;;;;;;;;;23.50;85.50;;;;;;5056804;28;19920;-65
2023/07/25 13:36:30;;;;;;;;;;;23.40;85.90;;;;;;5056912;28;20368;-65
2023/07/25 13:38:56;;;;;;;;;;;23.30;84.80;;;;;;5056262;28;19928;-65
2023/07/25 13:41:25;;;;;;;;;;;23.10;83.40;;;;;;5074724;28;19920;-66
2023/07/25 13:43:51;;;;;;;;;;;23.00;85.00;;;;;;5074456;28;19924;-64
2023/07/25 13:46:18;;;;;;;;;;;22.90;86.20;;;;;;5074052;28;20326;-65
2023/07/25 13:48:47;;;;;;;;;;;23.50;87.10;;;;;;5056346;28;19921;-66
2023/07/25 13:51:14;;;;;;;;;;;23.70;84.90;;;;;;5074525;28;19920;-65
2023/07/25 13:53:40;;;;;;;;;;;23.80;87.10;;;;;;5073882;28;19920;-66
2023/07/25 13:56:07;;;;;;;;;;;24.10;84.50;;;;;;5056751;28;19921;-66
2023/07/25 13:58:35;;;;;;;;;;;24.40;84.40;;;;;;5055647;28;19966;-66
2023/07/25 14:01:02;;;;;;;;;;;24.10;85.10;;;;;;5074138;28;20324;-66
2023/07/25 14:03:29;;;;;;;;;;;23.80;86.20;;;;;;5056409;28;19986;-66
2023/07/25 14:05:55;;;;;;;;;;;24.10;87.20;;;;;;5073494;28;20296;-66
2023/07/25 14:08:22;;;;;;;;;;;24.50;85.90;;;;;;5074006;28;19962;-65
2023/07/25 14:10:49;;;;;;;;;;;25.20;84.70;;;;;;5074008;28;19928;-66
2023/07/25 14:13:16;;;;;;;;;;;25.10;82.90;;;;;;5055617;28;19927;-65
2023/07/25 14:15:44;;;;;;;;;;;24.60;84.10;;;;;;5056169;28;19920;-65